Terminal Aerodrome Forecast
Issued by NWS

Home | Current Version | Previous Version | Text Only | Print | Product List | Glossary On
Versions: 1 2 3 4 5 6 7 8 9 10 11 12 13 14 15 16 17 18 19
000
FTUS44 KBMX 180538
TAFTCL
TAF
KTCL 180538Z 1806/1906 00000KT 1 1/2SM BR OVC003
     FM180800 00000KT 1/4SM FG VV001
     FM181600 00000KT 6SM BR OVC006
     FM181900 26003KT P6SM SCT006 OVC011
     FM190100 00000KT P6SM BKN015=

USA.gov is the U.S. government's official web portal to all federal, state and local government web resources and services.